Sail Way — CRA4549 — position and weather

sailwx.info

Track history (hours):
 
Tides and Currents Weather Stations Pressure Air Temp Water Temp Dewpoint Dewpoint Depression Visibility Wind Speed Wind Dir Waves Ship Positions

Sail Way

Last reported at 2016-Jun-18 13:16 UTC. Time now 2016-Aug-25 21:56 UTC.
Position N 37°38' W 000°38'.
Warning: this ship's position is months out of date.

Length 12 m.

Type: Sailing vessel. MMSI: 263912770.

Date/timePositionNaut miles runAvg speedWind from/ knotsBaromVisibWave heightAir tempDewpointWater temp
2016-Jun-18 13:16N 37°38' W 000°38'121 6.0
2016-Jun-17 17:08N 38°51' E 001°25'9 5.4
2016-Jun-17 15:30N 38°57' E 001°33'11 5.2
2016-Jun-17 13:25N 39°05' E 001°43'12 6.0
2016-Jun-17 11:24N 39°13' E 001°55'5 6.1
2016-Jun-17 10:33N 39°17' E 001°59'7 6.6
2016-Jun-17 09:30N 39°21' E 002°07'7 7.1
2016-Jun-17 08:32N 39°23' E 002°15'7 7.0
2016-Jun-17 07:33N 39°25' E 002°24'6 6.0
2016-Jun-17 06:31N 39°27' E 002°31'6 6.3
2016-Jun-17 05:33N 39°32' E 002°37'2 2.3
2016-Jun-17 04:32N 39°34' E 002°38'0 0.0
2016-Jun-16 17:05N 39°34' E 002°38'0 0.0
2016-Jun-16 12:31N 39°34' E 002°38'0 0.0
2016-Jun-16 11:31N 39°34' E 002°38'0 0.0
2016-Jun-15 10:11N 39°34' E 002°38'0 0.0
2016-Jun-15 09:33N 39°34' E 002°38'0 0.0
2016-Jun-14 13:12N 39°34' E 002°38'0 0.5
2016-Jun-14 12:33N 39°34' E 002°38'5 4.5
2016-Jun-14 11:33N 39°30' E 002°35'6 5.2
2016-Jun-14 10:19N 39°28' E 002°27'21 0.8
2016-Jun-13 08:31N 39°48' E 002°36'3 3.0
2016-Jun-13 07:31N 39°48' E 002°40'1 0.9
2016-Jun-13 06:24N 39°48' E 002°42'0 0.0
2016-Jun-11 14:20N 39°48' E 002°42'1 1.1
2016-Jun-11 13:33N 39°49' E 002°42'  
Track history (hours):
 
Tides and Currents Weather Stations Pressure Air Temp Water Temp Dewpoint Dewpoint Depression Visibility Wind Speed Wind Dir Waves Ship Positions

Sail Way

Last reported at 2016-Jun-18 13:16 UTC. Time now 2016-Aug-25 21:56 UTC.
Position N 37°38' W 000°38'.
Warning: this ship's position is months out of date.

Length 12 m.

Type: Sailing vessel. MMSI: 263912770.

Date/timePositionNaut miles runAvg speedWind from/ knotsBaromVisibWave heightAir tempDewpointWater temp
2016-Jun-18 13:16N 37°38' W 000°38'121 6.0
2016-Jun-17 17:08N 38°51' E 001°25'9 5.4
2016-Jun-17 15:30N 38°57' E 001°33'11 5.2
2016-Jun-17 13:25N 39°05' E 001°43'12 6.0
2016-Jun-17 11:24N 39°13' E 001°55'5 6.1
2016-Jun-17 10:33N 39°17' E 001°59'7 6.6
2016-Jun-17 09:30N 39°21' E 002°07'7 7.1
2016-Jun-17 08:32N 39°23' E 002°15'7 7.0
2016-Jun-17 07:33N 39°25' E 002°24'6 6.0
2016-Jun-17 06:31N 39°27' E 002°31'6 6.3
2016-Jun-17 05:33N 39°32' E 002°37'2 2.3
2016-Jun-17 04:32N 39°34' E 002°38'0 0.0
2016-Jun-16 17:05N 39°34' E 002°38'0 0.0
2016-Jun-16 12:31N 39°34' E 002°38'0 0.0
2016-Jun-16 11:31N 39°34' E 002°38'0 0.0
2016-Jun-15 10:11N 39°34' E 002°38'0 0.0
2016-Jun-15 09:33N 39°34' E 002°38'0 0.0
2016-Jun-14 13:12N 39°34' E 002°38'0 0.5
2016-Jun-14 12:33N 39°34' E 002°38'5 4.5
2016-Jun-14 11:33N 39°30' E 002°35'6 5.2
2016-Jun-14 10:19N 39°28' E 002°27'21 0.8
2016-Jun-13 08:31N 39°48' E 002°36'3 3.0
2016-Jun-13 07:31N 39°48' E 002°40'1 0.9
2016-Jun-13 06:24N 39°48' E 002°42'0 0.0
2016-Jun-11 14:20N 39°48' E 002°42'1 1.1
2016-Jun-11 13:33N 39°49' E 002°42'  

Dump ship's entire track history